sensor_id;sensor_type;location;lat;lon;timestamp;P1;durP1;ratioP1;P2;durP2;ratioP2
59193;SDS011;44967;48.598;15.650;2023-07-13T00:01:48;4.03;;;2.50;;
59193;SDS011;44967;48.598;15.650;2023-07-13T00:04:18;2.17;;;1.98;;
59193;SDS011;44967;48.598;15.650;2023-07-13T00:06:46;3.88;;;2.25;;
59193;SDS011;44967;48.598;15.650;2023-07-13T00:09:12;4.28;;;2.72;;
59193;SDS011;44967;48.598;15.650;2023-07-13T00:11:40;3.40;;;2.60;;
59193;SDS011;44967;48.598;15.650;2023-07-13T00:14:06;2.42;;;2.22;;
59193;SDS011;44967;48.598;15.650;2023-07-13T00:16:34;2.13;;;1.77;;
59193;SDS011;44967;48.598;15.650;2023-07-13T00:19:01;3.47;;;2.25;;
59193;SDS011;44967;48.598;15.650;2023-07-13T00:21:27;3.03;;;2.42;;
59193;SDS011;44967;48.598;15.650;2023-07-13T00:23:53;2.78;;;2.10;;
59193;SDS011;44967;48.598;15.650;2023-07-13T00:26:19;2.50;;;1.98;;
59193;SDS011;44967;48.598;15.650;2023-07-13T00:28:44;3.05;;;2.03;;
59193;SDS011;44967;48.598;15.650;2023-07-13T00:31:11;2.22;;;2.03;;
59193;SDS011;44967;48.598;15.650;2023-07-13T00:33:39;2.35;;;2.00;;
59193;SDS011;44967;48.598;15.650;2023-07-13T00:36:05;2.75;;;2.15;;
59193;SDS011;44967;48.598;15.650;2023-07-13T00:38:32;3.70;;;2.15;;
59193;SDS011;44967;48.598;15.650;2023-07-13T00:40:59;2.53;;;2.00;;
59193;SDS011;44967;48.598;15.650;2023-07-13T00:43:26;2.90;;;2.60;;
59193;SDS011;44967;48.598;15.650;2023-07-13T00:48:20;2.72;;;2.35;;
59193;SDS011;44967;48.598;15.650;2023-07-13T00:50:50;3.90;;;2.90;;
59193;SDS011;44967;48.598;15.650;2023-07-13T00:53:19;3.25;;;2.40;;
59193;SDS011;44967;48.598;15.650;2023-07-13T00:55:46;2.60;;;2.40;;
59193;SDS011;44967;48.598;15.650;2023-07-13T00:58:14;2.35;;;2.15;;
59193;SDS011;44967;48.598;15.650;2023-07-13T01:00:41;3.85;;;2.60;;
59193;SDS011;44967;48.598;15.650;2023-07-13T01:03:07;3.05;;;2.55;;
59193;SDS011;44967;48.598;15.650;2023-07-13T01:05:34;3.10;;;2.17;;
59193;SDS011;44967;48.598;15.650;2023-07-13T01:08:01;4.60;;;2.05;;
59193;SDS011;44967;48.598;15.650;2023-07-13T01:10:35;4.93;;;2.22;;
59193;SDS011;44967;48.598;15.650;2023-07-13T01:13:07;2.63;;;2.42;;
59193;SDS011;44967;48.598;15.650;2023-07-13T01:15:38;3.05;;;2.35;;
59193;SDS011;44967;48.598;15.650;2023-07-13T01:18:05;3.17;;;2.38;;
59193;SDS011;44967;48.598;15.650;2023-07-13T01:20:36;3.65;;;2.40;;
59193;SDS011;44967;48.598;15.650;2023-07-13T01:23:03;3.55;;;2.58;;
59193;SDS011;44967;48.598;15.650;2023-07-13T01:25:31;2.83;;;2.15;;
59193;SDS011;44967;48.598;15.650;2023-07-13T01:27:57;4.03;;;2.42;;
59193;SDS011;44967;48.598;15.650;2023-07-13T01:30:22;4.40;;;2.83;;
59193;SDS011;44967;48.598;15.650;2023-07-13T01:32:49;2.97;;;2.40;;
59193;SDS011;44967;48.598;15.650;2023-07-13T01:35:14;3.58;;;2.60;;
59193;SDS011;44967;48.598;15.650;2023-07-13T01:37:41;2.95;;;2.53;;
59193;SDS011;44967;48.598;15.650;2023-07-13T01:40:07;4.00;;;2.30;;
59193;SDS011;44967;48.598;15.650;2023-07-13T01:42:34;3.03;;;2.47;;
59193;SDS011;44967;48.598;15.650;2023-07-13T01:44:59;4.32;;;2.30;;
59193;SDS011;44967;48.598;15.650;2023-07-13T01:47:25;2.38;;;2.17;;
59193;SDS011;44967;48.598;15.650;2023-07-13T01:49:51;2.85;;;2.53;;
59193;SDS011;44967;48.598;15.650;2023-07-13T01:52:17;2.45;;;2.25;;
59193;SDS011;44967;48.598;15.650;2023-07-13T01:54:42;3.25;;;2.30;;
59193;SDS011;44967;48.598;15.650;2023-07-13T01:57:08;3.90;;;2.47;;
59193;SDS011;44967;48.598;15.650;2023-07-13T01:59:34;2.40;;;1.80;;
59193;SDS011;44967;48.598;15.650;2023-07-13T02:02:00;3.65;;;2.50;;
59193;SDS011;44967;48.598;15.650;2023-07-13T02:04:26;5.22;;;2.80;;
59193;SDS011;44967;48.598;15.650;2023-07-13T02:06:51;4.65;;;2.20;;
59193;SDS011;44967;48.598;15.650;2023-07-13T02:09:17;4.68;;;2.63;;
59193;SDS011;44967;48.598;15.650;2023-07-13T02:11:42;3.67;;;2.78;;
59193;SDS011;44967;48.598;15.650;2023-07-13T02:14:08;4.10;;;2.45;;
59193;SDS011;44967;48.598;15.650;2023-07-13T02:16:34;2.28;;;2.03;;
59193;SDS011;44967;48.598;15.650;2023-07-13T02:18:59;5.18;;;2.40;;
59193;SDS011;44967;48.598;15.650;2023-07-13T02:21:25;2.42;;;2.22;;
59193;SDS011;44967;48.598;15.650;2023-07-13T02:23:51;2.38;;;2.15;;
59193;SDS011;44967;48.598;15.650;2023-07-13T02:26:18;2.92;;;2.22;;
59193;SDS011;44967;48.598;15.650;2023-07-13T02:28:44;3.45;;;2.53;;
59193;SDS011;44967;48.598;15.650;2023-07-13T02:31:11;4.40;;;2.38;;
59193;SDS011;44967;48.598;15.650;2023-07-13T02:33:38;2.50;;;2.28;;
59193;SDS011;44967;48.598;15.650;2023-07-13T02:36:04;2.90;;;2.20;;
59193;SDS011;44967;48.598;15.650;2023-07-13T02:38:32;2.38;;;2.17;;
59193;SDS011;44967;48.598;15.650;2023-07-13T02:40:59;2.60;;;2.03;;
59193;SDS011;44967;48.598;15.650;2023-07-13T02:43:25;2.53;;;2.00;;
59193;SDS011;44967;48.598;15.650;2023-07-13T02:45:50;2.92;;;2.08;;
59193;SDS011;44967;48.598;15.650;2023-07-13T02:48:16;2.92;;;1.60;;
59193;SDS011;44967;48.598;15.650;2023-07-13T02:50:43;2.22;;;1.95;;
59193;SDS011;44967;48.598;15.650;2023-07-13T02:53:10;2.72;;;1.73;;
59193;SDS011;44967;48.598;15.650;2023-07-13T02:55:36;3.97;;;2.20;;
59193;SDS011;44967;48.598;15.650;2023-07-13T02:58:02;3.17;;;2.67;;
59193;SDS011;44967;48.598;15.650;2023-07-13T03:00:27;3.13;;;2.80;;
59193;SDS011;44967;48.598;15.650;2023-07-13T03:02:53;4.00;;;2.92;;
59193;SDS011;44967;48.598;15.650;2023-07-13T03:05:25;3.88;;;3.13;;
59193;SDS011;44967;48.598;15.650;2023-07-13T03:07:50;8.55;;;3.50;;
59193;SDS011;44967;48.598;15.650;2023-07-13T03:10:16;4.63;;;4.05;;
59193;SDS011;44967;48.598;15.650;2023-07-13T03:12:42;3.67;;;3.38;;
59193;SDS011;44967;48.598;15.650;2023-07-13T03:15:08;4.57;;;3.88;;
59193;SDS011;44967;48.598;15.650;2023-07-13T03:17:34;5.00;;;4.50;;
59193;SDS011;44967;48.598;15.650;2023-07-13T03:20:00;5.38;;;4.43;;
59193;SDS011;44967;48.598;15.650;2023-07-13T03:22:25;4.82;;;4.30;;
59193;SDS011;44967;48.598;15.650;2023-07-13T03:24:51;5.10;;;4.60;;
59193;SDS011;44967;48.598;15.650;2023-07-13T03:27:17;4.55;;;4.15;;
59193;SDS011;44967;48.598;15.650;2023-07-13T03:29:43;4.70;;;4.28;;
59193;SDS011;44967;48.598;15.650;2023-07-13T03:32:09;4.68;;;4.20;;
59193;SDS011;44967;48.598;15.650;2023-07-13T03:34:35;4.68;;;3.95;;
59193;SDS011;44967;48.598;15.650;2023-07-13T03:37:01;5.07;;;4.50;;
59193;SDS011;44967;48.598;15.650;2023-07-13T03:39:26;5.15;;;4.32;;
59193;SDS011;44967;48.598;15.650;2023-07-13T03:41:52;4.88;;;4.43;;
59193;SDS011;44967;48.598;15.650;2023-07-13T03:44:18;4.30;;;3.92;;
59193;SDS011;44967;48.598;15.650;2023-07-13T03:46:44;4.03;;;3.50;;
59193;SDS011;44967;48.598;15.650;2023-07-13T03:49:10;3.90;;;3.60;;
59193;SDS011;44967;48.598;15.650;2023-07-13T03:51:36;4.70;;;4.18;;
59193;SDS011;44967;48.598;15.650;2023-07-13T03:54:02;4.10;;;3.70;;
59193;SDS011;44967;48.598;15.650;2023-07-13T03:56:28;5.72;;;4.20;;
59193;SDS011;44967;48.598;15.650;2023-07-13T03:58:56;4.18;;;3.78;;
59193;SDS011;44967;48.598;15.650;2023-07-13T04:01:22;4.57;;;4.18;;
59193;SDS011;44967;48.598;15.650;2023-07-13T04:03:50;4.82;;;4.43;;
59193;SDS011;44967;48.598;15.650;2023-07-13T04:06:18;4.32;;;3.70;;
59193;SDS011;44967;48.598;15.650;2023-07-13T04:08:56;3.88;;;3.58;;
59193;SDS011;44967;48.598;15.650;2023-07-13T04:11:24;4.97;;;3.58;;
59193;SDS011;44967;48.598;15.650;2023-07-13T04:13:51;4.93;;;3.50;;
59193;SDS011;44967;48.598;15.650;2023-07-13T04:16:17;5.38;;;3.83;;
59193;SDS011;44967;48.598;15.650;2023-07-13T04:18:44;3.97;;;3.58;;
59193;SDS011;44967;48.598;15.650;2023-07-13T04:21:11;5.30;;;3.30;;
59193;SDS011;44967;48.598;15.650;2023-07-13T04:23:37;4.32;;;3.60;;
59193;SDS011;44967;48.598;15.650;2023-07-13T04:26:03;3.63;;;3.00;;
59193;SDS011;44967;48.598;15.650;2023-07-13T04:28:29;5.05;;;3.72;;
59193;SDS011;44967;48.598;15.650;2023-07-13T04:30:58;4.05;;;3.42;;
59193;SDS011;44967;48.598;15.650;2023-07-13T04:33:24;3.30;;;2.95;;
59193;SDS011;44967;48.598;15.650;2023-07-13T04:35:50;3.47;;;3.17;;
59193;SDS011;44967;48.598;15.650;2023-07-13T04:38:25;4.47;;;3.25;;
59193;SDS011;44967;48.598;15.650;2023-07-13T04:40:54;4.47;;;3.53;;
59193;SDS011;44967;48.598;15.650;2023-07-13T04:43:22;3.53;;;3.22;;
59193;SDS011;44967;48.598;15.650;2023-07-13T04:45:49;3.17;;;2.90;;
59193;SDS011;44967;48.598;15.650;2023-07-13T04:48:16;6.78;;;2.80;;
59193;SDS011;44967;48.598;15.650;2023-07-13T04:50:41;3.80;;;3.10;;
59193;SDS011;44967;48.598;15.650;2023-07-13T04:53:09;3.78;;;3.35;;
59193;SDS011;44967;48.598;15.650;2023-07-13T04:55:36;2.90;;;2.70;;
59193;SDS011;44967;48.598;15.650;2023-07-13T04:58:02;4.35;;;2.90;;
59193;SDS011;44967;48.598;15.650;2023-07-13T05:00:28;3.13;;;2.83;;
59193;SDS011;44967;48.598;15.650;2023-07-13T05:02:55;2.88;;;2.65;;
59193;SDS011;44967;48.598;15.650;2023-07-13T05:05:26;4.25;;;3.20;;
59193;SDS011;44967;48.598;15.650;2023-07-13T05:07:52;2.95;;;2.65;;
59193;SDS011;44967;48.598;15.650;2023-07-13T05:10:19;3.25;;;2.78;;
59193;SDS011;44967;48.598;15.650;2023-07-13T05:12:45;4.00;;;2.90;;
59193;SDS011;44967;48.598;15.650;2023-07-13T05:15:11;4.32;;;2.50;;
59193;SDS011;44967;48.598;15.650;2023-07-13T05:17:37;3.38;;;2.75;;
59193;SDS011;44967;48.598;15.650;2023-07-13T05:20:05;3.50;;;2.72;;
59193;SDS011;44967;48.598;15.650;2023-07-13T05:22:32;3.13;;;2.83;;
59193;SDS011;44967;48.598;15.650;2023-07-13T05:24:57;3.03;;;2.65;;
59193;SDS011;44967;48.598;15.650;2023-07-13T05:27:23;3.67;;;3.08;;
59193;SDS011;44967;48.598;15.650;2023-07-13T05:29:49;4.32;;;3.10;;
59193;SDS011;44967;48.598;15.650;2023-07-13T05:32:15;2.60;;;2.40;;
59193;SDS011;44967;48.598;15.650;2023-07-13T05:34:40;3.08;;;2.78;;
59193;SDS011;44967;48.598;15.650;2023-07-13T05:37:07;3.30;;;2.78;;
59193;SDS011;44967;48.598;15.650;2023-07-13T05:39:33;3.80;;;3.03;;
59193;SDS011;44967;48.598;15.650;2023-07-13T05:41:58;3.63;;;3.00;;
59193;SDS011;44967;48.598;15.650;2023-07-13T05:44:24;3.78;;;3.03;;
59193;SDS011;44967;48.598;15.650;2023-07-13T05:46:50;2.95;;;2.65;;
59193;SDS011;44967;48.598;15.650;2023-07-13T05:49:16;3.20;;;2.90;;
59193;SDS011;44967;48.598;15.650;2023-07-13T05:51:42;2.90;;;2.70;;
59193;SDS011;44967;48.598;15.650;2023-07-13T05:54:07;3.17;;;2.90;;
59193;SDS011;44967;48.598;15.650;2023-07-13T05:56:33;3.47;;;3.17;;
59193;SDS011;44967;48.598;15.650;2023-07-13T05:58:59;4.25;;;3.08;;
59193;SDS011;44967;48.598;15.650;2023-07-13T06:01:24;4.05;;;2.72;;
59193;SDS011;44967;48.598;15.650;2023-07-13T06:03:50;2.83;;;2.58;;
59193;SDS011;44967;48.598;15.650;2023-07-13T06:06:16;2.88;;;2.67;;
59193;SDS011;44967;48.598;15.650;2023-07-13T06:08:42;3.38;;;2.42;;
59193;SDS011;44967;48.598;15.650;2023-07-13T06:13:42;2.73;;;2.50;;
59193;SDS011;44967;48.598;15.650;2023-07-13T06:16:08;2.92;;;2.40;;
59193;SDS011;44967;48.598;15.650;2023-07-13T06:18:34;2.55;;;2.35;;
59193;SDS011;44967;48.598;15.650;2023-07-13T06:21:05;2.95;;;2.65;;
59193;SDS011;44967;48.598;15.650;2023-07-13T06:23:32;3.78;;;2.22;;
59193;SDS011;44967;48.598;15.650;2023-07-13T06:25:58;2.65;;;2.08;;
59193;SDS011;44967;48.598;15.650;2023-07-13T06:28:24;2.95;;;2.40;;
59193;SDS011;44967;48.598;15.650;2023-07-13T06:30:49;2.78;;;2.20;;
59193;SDS011;44967;48.598;15.650;2023-07-13T06:33:15;4.20;;;2.58;;
59193;SDS011;44967;48.598;15.650;2023-07-13T06:35:41;2.15;;;1.95;;
59193;SDS011;44967;48.598;15.650;2023-07-13T06:38:06;2.22;;;2.03;;
59193;SDS011;44967;48.598;15.650;2023-07-13T06:40:32;3.00;;;1.98;;
59193;SDS011;44967;48.598;15.650;2023-07-13T06:42:58;4.65;;;2.00;;
59193;SDS011;44967;48.598;15.650;2023-07-13T06:45:24;2.03;;;1.83;;
59193;SDS011;44967;48.598;15.650;2023-07-13T06:47:49;2.60;;;1.73;;
59193;SDS011;44967;48.598;15.650;2023-07-13T06:50:15;3.33;;;2.00;;
59193;SDS011;44967;48.598;15.650;2023-07-13T06:52:40;2.83;;;2.13;;
59193;SDS011;44967;48.598;15.650;2023-07-13T06:55:06;3.40;;;2.05;;
59193;SDS011;44967;48.598;15.650;2023-07-13T06:57:33;2.50;;;1.65;;
59193;SDS011;44967;48.598;15.650;2023-07-13T06:59:59;2.45;;;1.85;;
59193;SDS011;44967;48.598;15.650;2023-07-13T07:02:25;2.08;;;1.83;;
59193;SDS011;44967;48.598;15.650;2023-07-13T07:04:51;2.88;;;1.95;;
59193;SDS011;44967;48.598;15.650;2023-07-13T07:07:16;2.13;;;1.77;;
59193;SDS011;44967;48.598;15.650;2023-07-13T07:09:42;2.25;;;1.95;;
59193;SDS011;44967;48.598;15.650;2023-07-13T07:12:08;3.28;;;2.30;;
59193;SDS011;44967;48.598;15.650;2023-07-13T07:14:35;2.00;;;1.77;;
59193;SDS011;44967;48.598;15.650;2023-07-13T07:17:00;3.22;;;1.73;;
59193;SDS011;44967;48.598;15.650;2023-07-13T07:19:29;2.38;;;1.75;;
59193;SDS011;44967;48.598;15.650;2023-07-13T07:21:56;2.55;;;1.85;;
59193;SDS011;44967;48.598;15.650;2023-07-13T07:24:21;2.00;;;1.90;;
59193;SDS011;44967;48.598;15.650;2023-07-13T07:26:47;2.15;;;1.85;;
59193;SDS011;44967;48.598;15.650;2023-07-13T07:29:13;1.77;;;1.67;;
59193;SDS011;44967;48.598;15.650;2023-07-13T07:31:38;1.70;;;1.60;;
59193;SDS011;44967;48.598;15.650;2023-07-13T07:34:04;3.72;;;1.88;;
59193;SDS011;44967;48.598;15.650;2023-07-13T07:36:30;2.03;;;1.85;;
59193;SDS011;44967;48.598;15.650;2023-07-13T07:38:55;3.90;;;2.10;;
59193;SDS011;44967;48.598;15.650;2023-07-13T07:41:21;1.60;;;1.50;;
59193;SDS011;44967;48.598;15.650;2023-07-13T07:43:46;3.20;;;1.90;;
59193;SDS011;44967;48.598;15.650;2023-07-13T07:46:12;1.65;;;1.55;;
59193;SDS011;44967;48.598;15.650;2023-07-13T07:48:38;2.13;;;1.77;;
59193;SDS011;44967;48.598;15.650;2023-07-13T07:51:04;2.10;;;1.88;;
59193;SDS011;44967;48.598;15.650;2023-07-13T07:53:29;2.80;;;1.60;;
59193;SDS011;44967;48.598;15.650;2023-07-13T07:55:55;1.60;;;1.50;;
59193;SDS011;44967;48.598;15.650;2023-07-13T07:58:21;2.20;;;1.65;;
59193;SDS011;44967;48.598;15.650;2023-07-13T08:00:47;3.53;;;2.20;;
59193;SDS011;44967;48.598;15.650;2023-07-13T08:03:13;2.22;;;1.90;;
59193;SDS011;44967;48.598;15.650;2023-07-13T08:05:38;1.65;;;1.52;;
59193;SDS011;44967;48.598;15.650;2023-07-13T08:08:04;1.77;;;1.67;;
59193;SDS011;44967;48.598;15.650;2023-07-13T08:10:30;2.25;;;1.95;;
59193;SDS011;44967;48.598;15.650;2023-07-13T08:12:56;2.20;;;1.70;;
59193;SDS011;44967;48.598;15.650;2023-07-13T08:15:21;3.30;;;1.70;;
59193;SDS011;44967;48.598;15.650;2023-07-13T08:17:48;4.13;;;1.70;;
59193;SDS011;44967;48.598;15.650;2023-07-13T08:20:14;2.67;;;1.95;;
59193;SDS011;44967;48.598;15.650;2023-07-13T08:22:40;2.72;;;2.38;;
59193;SDS011;44967;48.598;15.650;2023-07-13T08:25:06;2.10;;;1.80;;
59193;SDS011;44967;48.598;15.650;2023-07-13T08:27:32;1.88;;;1.75;;
59193;SDS011;44967;48.598;15.650;2023-07-13T08:29:58;2.45;;;1.80;;
59193;SDS011;44967;48.598;15.650;2023-07-13T08:32:24;2.15;;;1.95;;
59193;SDS011;44967;48.598;15.650;2023-07-13T08:34:50;2.90;;;2.40;;
59193;SDS011;44967;48.598;15.650;2023-07-13T08:37:19;2.72;;;2.08;;
59193;SDS011;44967;48.598;15.650;2023-07-13T08:39:45;3.20;;;2.00;;
59193;SDS011;44967;48.598;15.650;2023-07-13T08:42:15;3.30;;;1.83;;
59193;SDS011;44967;48.598;15.650;2023-07-13T08:47:26;2.80;;;2.50;;
59193;SDS011;44967;48.598;15.650;2023-07-13T08:49:55;3.38;;;2.10;;
59193;SDS011;44967;48.598;15.650;2023-07-13T08:52:32;2.45;;;2.00;;
59193;SDS011;44967;48.598;15.650;2023-07-13T08:55:05;3.25;;;2.08;;
59193;SDS011;44967;48.598;15.650;2023-07-13T08:57:41;2.50;;;2.05;;
59193;SDS011;44967;48.598;15.650;2023-07-13T09:00:11;3.50;;;2.00;;
59193;SDS011;44967;48.598;15.650;2023-07-13T09:02:58;2.05;;;1.95;;
59193;SDS011;44967;48.598;15.650;2023-07-13T09:05:30;2.90;;;1.95;;
59193;SDS011;44967;48.598;15.650;2023-07-13T09:10:27;4.50;;;3.03;;
59193;SDS011;44967;48.598;15.650;2023-07-13T09:15:41;3.70;;;2.20;;
59193;SDS011;44967;48.598;15.650;2023-07-13T09:18:11;2.17;;;1.60;;
59193;SDS011;44967;48.598;15.650;2023-07-13T09:23:22;2.60;;;2.20;;
59193;SDS011;44967;48.598;15.650;2023-07-13T09:25:53;3.65;;;2.50;;
59193;SDS011;44967;48.598;15.650;2023-07-13T09:28:28;3.67;;;2.50;;
59193;SDS011;44967;48.598;15.650;2023-07-13T09:31:06;2.60;;;2.20;;
59193;SDS011;44967;48.598;15.650;2023-07-13T09:33:43;2.47;;;1.95;;
59193;SDS011;44967;48.598;15.650;2023-07-13T09:36:19;1.92;;;1.73;;
59193;SDS011;44967;48.598;15.650;2023-07-13T09:38:49;3.00;;;1.63;;
59193;SDS011;44967;48.598;15.650;2023-07-13T09:44:30;3.28;;;1.50;;
59193;SDS011;44967;48.598;15.650;2023-07-13T09:47:00;2.10;;;1.35;;
59193;SDS011;44967;48.598;15.650;2023-07-13T09:49:33;1.60;;;1.40;;
59193;SDS011;44967;48.598;15.650;2023-07-13T09:52:05;3.60;;;1.50;;
59193;SDS011;44967;48.598;15.650;2023-07-13T09:54:34;2.10;;;1.42;;
59193;SDS011;44967;48.598;15.650;2023-07-13T09:57:01;1.40;;;1.30;;
59193;SDS011;44967;48.598;15.650;2023-07-13T09:59:29;1.90;;;1.55;;
59193;SDS011;44967;48.598;15.650;2023-07-13T10:01:58;3.00;;;2.05;;
59193;SDS011;44967;48.598;15.650;2023-07-13T10:04:28;3.47;;;2.47;;
59193;SDS011;44967;48.598;15.650;2023-07-13T10:07:07;3.67;;;2.17;;
59193;SDS011;44967;48.598;15.650;2023-07-13T10:09:35;3.85;;;2.28;;
59193;SDS011;44967;48.598;15.650;2023-07-13T10:12:01;2.85;;;1.88;;
59193;SDS011;44967;48.598;15.650;2023-07-13T10:14:26;4.82;;;2.15;;
59193;SDS011;44967;48.598;15.650;2023-07-13T10:16:58;2.28;;;2.05;;
59193;SDS011;44967;48.598;15.650;2023-07-13T10:19:31;2.78;;;1.90;;
59193;SDS011;44967;48.598;15.650;2023-07-13T10:22:09;2.15;;;1.85;;
59193;SDS011;44967;48.598;15.650;2023-07-13T10:24:53;4.40;;;2.10;;
59193;SDS011;44967;48.598;15.650;2023-07-13T10:27:31;1.63;;;1.52;;
59193;SDS011;44967;48.598;15.650;2023-07-13T10:32:35;2.10;;;1.60;;
59193;SDS011;44967;48.598;15.650;2023-07-13T10:35:01;2.85;;;1.60;;
59193;SDS011;44967;48.598;15.650;2023-07-13T10:37:36;2.67;;;1.65;;
59193;SDS011;44967;48.598;15.650;2023-07-13T10:40:12;1.88;;;1.70;;
59193;SDS011;44967;48.598;15.650;2023-07-13T10:42:43;2.00;;;1.83;;
59193;SDS011;44967;48.598;15.650;2023-07-13T10:45:15;2.20;;;1.90;;
59193;SDS011;44967;48.598;15.650;2023-07-13T10:47:43;3.60;;;1.95;;
59193;SDS011;44967;48.598;15.650;2023-07-13T10:50:23;2.75;;;1.73;;
59193;SDS011;44967;48.598;15.650;2023-07-13T10:53:03;1.83;;;1.73;;
59193;SDS011;44967;48.598;15.650;2023-07-13T11:03:54;2.03;;;1.90;;
59193;SDS011;44967;48.598;15.650;2023-07-13T11:21:18;2.10;;;1.90;;
59193;SDS011;44967;48.598;15.650;2023-07-13T11:23:54;3.92;;;1.67;;
59193;SDS011;44967;48.598;15.650;2023-07-13T11:31:51;2.47;;;1.98;;
59193;SDS011;44967;48.598;15.650;2023-07-13T11:34:21;1.58;;;1.35;;
59193;SDS011;44967;48.598;15.650;2023-07-13T11:36:54;2.15;;;2.00;;
59193;SDS011;44967;48.598;15.650;2023-07-13T11:41:59;4.18;;;1.92;;
59193;SDS011;44967;48.598;15.650;2023-07-13T11:44:29;5.57;;;2.10;;
59193;SDS011;44967;48.598;15.650;2023-07-13T11:46:57;4.30;;;1.70;;
59193;SDS011;44967;48.598;15.650;2023-07-13T11:49:30;2.85;;;1.70;;
59193;SDS011;44967;48.598;15.650;2023-07-13T11:51:57;1.95;;;1.80;;
59193;SDS011;44967;48.598;15.650;2023-07-13T11:54:31;4.47;;;2.00;;
59193;SDS011;44967;48.598;15.650;2023-07-13T11:57:20;2.83;;;2.20;;
59193;SDS011;44967;48.598;15.650;2023-07-13T11:59:53;3.90;;;2.10;;
59193;SDS011;44967;48.598;15.650;2023-07-13T12:02:25;3.22;;;2.15;;
59193;SDS011;44967;48.598;15.650;2023-07-13T12:04:57;3.15;;;2.55;;
59193;SDS011;44967;48.598;15.650;2023-07-13T12:07:24;2.58;;;2.10;;
59193;SDS011;44967;48.598;15.650;2023-07-13T12:09:49;2.53;;;1.80;;
59193;SDS011;44967;48.598;15.650;2023-07-13T12:12:22;1.95;;;1.67;;
59193;SDS011;44967;48.598;15.650;2023-07-13T12:14:54;2.05;;;1.80;;
59193;SDS011;44967;48.598;15.650;2023-07-13T12:17:21;2.97;;;1.98;;
59193;SDS011;44967;48.598;15.650;2023-07-13T12:19:49;2.60;;;2.03;;
59193;SDS011;44967;48.598;15.650;2023-07-13T12:22:17;2.38;;;1.50;;
59193;SDS011;44967;48.598;15.650;2023-07-13T12:24:44;3.25;;;1.67;;
59193;SDS011;44967;48.598;15.650;2023-07-13T12:27:21;1.67;;;1.58;;
59193;SDS011;44967;48.598;15.650;2023-07-13T12:29:58;1.98;;;1.63;;
59193;SDS011;44967;48.598;15.650;2023-07-13T12:32:26;2.08;;;1.60;;
59193;SDS011;44967;48.598;15.650;2023-07-13T12:34:53;1.67;;;1.58;;
59193;SDS011;44967;48.598;15.650;2023-07-13T12:37:21;1.60;;;1.50;;
59193;SDS011;44967;48.598;15.650;2023-07-13T12:39:47;2.42;;;1.70;;
59193;SDS011;44967;48.598;15.650;2023-07-13T12:42:27;2.83;;;1.73;;
59193;SDS011;44967;48.598;15.650;2023-07-13T12:45:12;3.03;;;1.40;;
59193;SDS011;44967;48.598;15.650;2023-07-13T12:47:47;2.45;;;1.75;;
59193;SDS011;44967;48.598;15.650;2023-07-13T12:50:22;2.28;;;1.75;;
59193;SDS011;44967;48.598;15.650;2023-07-13T12:52:56;5.15;;;1.70;;
59193;SDS011;44967;48.598;15.650;2023-07-13T12:55:29;2.47;;;1.50;;
59193;SDS011;44967;48.598;15.650;2023-07-13T12:57:58;2.78;;;1.70;;
59193;SDS011;44967;48.598;15.650;2023-07-13T13:00:29;2.97;;;1.85;;
59193;SDS011;44967;48.598;15.650;2023-07-13T13:05:40;1.73;;;1.60;;
59193;SDS011;44967;48.598;15.650;2023-07-13T13:08:10;1.58;;;1.48;;
59193;SDS011;44967;48.598;15.650;2023-07-13T13:10:36;2.13;;;1.77;;
59193;SDS011;44967;48.598;15.650;2023-07-13T13:13:02;3.08;;;1.70;;
59193;SDS011;44967;48.598;15.650;2023-07-13T13:15:28;2.75;;;1.80;;
59193;SDS011;44967;48.598;15.650;2023-07-13T13:17:55;2.42;;;1.98;;
59193;SDS011;44967;48.598;15.650;2023-07-13T13:20:24;2.50;;;1.73;;
59193;SDS011;44967;48.598;15.650;2023-07-13T13:22:51;2.22;;;1.70;;
59193;SDS011;44967;48.598;15.650;2023-07-13T13:25:17;2.35;;;1.77;;
59193;SDS011;44967;48.598;15.650;2023-07-13T13:27:43;1.63;;;1.52;;
59193;SDS011;44967;48.598;15.650;2023-07-13T13:30:19;2.00;;;1.90;;
59193;SDS011;44967;48.598;15.650;2023-07-13T13:32:46;3.72;;;2.00;;
59193;SDS011;44967;48.598;15.650;2023-07-13T13:35:14;1.85;;;1.70;;
59193;SDS011;44967;48.598;15.650;2023-07-13T13:37:40;2.33;;;1.77;;
59193;SDS011;44967;48.598;15.650;2023-07-13T13:40:19;3.17;;;2.10;;
59193;SDS011;44967;48.598;15.650;2023-07-13T13:42:49;2.75;;;1.90;;
59193;SDS011;44967;48.598;15.650;2023-07-13T13:45:16;2.03;;;1.88;;
59193;SDS011;44967;48.598;15.650;2023-07-13T13:47:43;2.42;;;1.90;;
59193;SDS011;44967;48.598;15.650;2023-07-13T13:50:13;2.40;;;1.83;;
59193;SDS011;44967;48.598;15.650;2023-07-13T13:52:41;2.10;;;2.00;;
59193;SDS011;44967;48.598;15.650;2023-07-13T13:55:14;2.10;;;1.90;;
59193;SDS011;44967;48.598;15.650;2023-07-13T13:57:41;3.25;;;2.00;;
59193;SDS011;44967;48.598;15.650;2023-07-13T14:00:08;3.22;;;2.33;;
59193;SDS011;44967;48.598;15.650;2023-07-13T14:02:40;3.00;;;1.80;;
59193;SDS011;44967;48.598;15.650;2023-07-13T14:05:12;1.90;;;1.80;;
59193;SDS011;44967;48.598;15.650;2023-07-13T14:07:38;1.92;;;1.83;;
59193;SDS011;44967;48.598;15.650;2023-07-13T14:10:10;4.03;;;1.90;;
59193;SDS011;44967;48.598;15.650;2023-07-13T14:12:40;1.77;;;1.67;;
59193;SDS011;44967;48.598;15.650;2023-07-13T14:15:18;3.22;;;1.70;;
59193;SDS011;44967;48.598;15.650;2023-07-13T14:17:47;2.83;;;1.38;;
59193;SDS011;44967;48.598;15.650;2023-07-13T14:20:15;1.67;;;1.50;;
59193;SDS011;44967;48.598;15.650;2023-07-13T14:22:42;2.10;;;1.77;;
59193;SDS011;44967;48.598;15.650;2023-07-13T14:25:13;2.83;;;1.92;;
59193;SDS011;44967;48.598;15.650;2023-07-13T14:27:40;2.10;;;1.90;;
59193;SDS011;44967;48.598;15.650;2023-07-13T14:30:17;1.80;;;1.70;;
59193;SDS011;44967;48.598;15.650;2023-07-13T14:32:47;1.88;;;1.77;;
59193;SDS011;44967;48.598;15.650;2023-07-13T14:35:14;1.67;;;1.58;;
59193;SDS011;44967;48.598;15.650;2023-07-13T14:37:42;3.22;;;1.90;;
59193;SDS011;44967;48.598;15.650;2023-07-13T14:42:43;1.95;;;1.50;;
59193;SDS011;44967;48.598;15.650;2023-07-13T14:45:16;1.83;;;1.50;;
59193;SDS011;44967;48.598;15.650;2023-07-13T14:47:43;2.17;;;1.60;;
59193;SDS011;44967;48.598;15.650;2023-07-13T14:50:14;2.38;;;1.90;;
59193;SDS011;44967;48.598;15.650;2023-07-13T14:52:41;2.42;;;1.67;;
59193;SDS011;44967;48.598;15.650;2023-07-13T14:55:11;3.53;;;1.90;;
59193;SDS011;44967;48.598;15.650;2023-07-13T14:57:42;1.80;;;1.70;;
59193;SDS011;44967;48.598;15.650;2023-07-13T15:00:14;3.92;;;1.80;;
59193;SDS011;44967;48.598;15.650;2023-07-13T15:02:43;2.63;;;1.70;;
59193;SDS011;44967;48.598;15.650;2023-07-13T15:05:16;1.60;;;1.33;;
59193;SDS011;44967;48.598;15.650;2023-07-13T15:07:43;1.98;;;1.80;;
59193;SDS011;44967;48.598;15.650;2023-07-13T15:13:18;4.68;;;1.77;;
59193;SDS011;44967;48.598;15.650;2023-07-13T15:15:46;2.00;;;1.58;;
59193;SDS011;44967;48.598;15.650;2023-07-13T15:18:14;1.60;;;1.50;;
59193;SDS011;44967;48.598;15.650;2023-07-13T15:20:42;3.10;;;1.52;;
59193;SDS011;44967;48.598;15.650;2023-07-13T15:23:11;1.52;;;1.40;;
59193;SDS011;44967;48.598;15.650;2023-07-13T15:25:38;4.05;;;1.38;;
59193;SDS011;44967;48.598;15.650;2023-07-13T15:28:04;2.53;;;1.42;;
59193;SDS011;44967;48.598;15.650;2023-07-13T15:30:31;1.52;;;1.40;;
59193;SDS011;44967;48.598;15.650;2023-07-13T15:33:09;3.08;;;1.40;;
59193;SDS011;44967;48.598;15.650;2023-07-13T15:35:38;2.13;;;1.33;;
59193;SDS011;44967;48.598;15.650;2023-07-13T15:38:14;1.80;;;1.60;;
59193;SDS011;44967;48.598;15.650;2023-07-13T15:40:42;2.28;;;1.42;;